Flight Track Log - Related Links

Times and Time Zones

All times are in EST time to prevent confusion due to time zone crossing. See the AFR7892 flight status page for this flight to view local times or setup timezone preferences in your user account.

Time Position Orientation Groundspeed Altitude Reporting Facility
EST Latitude Longitude Course Direction KTS MPH feet Rate Location/Type
Sat 12:13:00 AM 44.1556 7.2561 North  Level Estimated
Sat 12:14:00 AM 44.2263 7.2616 North  Level Estimated
Sat 12:15:00 AM 44.2971 7.2672 North  Level Estimated
Sat 12:16:00 AM 44.3678 7.2728 North  Level Estimated
Sat 12:17:00 AM 44.4385 7.2784 North  Level Estimated
Sat 12:18:00 AM 44.5092 7.2840 North  Level Estimated
Sat 12:19:00 AM 44.5799 7.2896 North  Level Estimated
Sat 12:20:00 AM 44.6506 7.2952 North  Level Estimated
Sat 12:21:00 AM 44.7213 7.3009 North  Level Estimated
Sat 12:22:00 AM 44.7920 7.3065 North  Level Estimated
Sat 12:23:00 AM 44.8627 7.3122 North  Level Estimated
Sat 12:24:00 AM 44.9334 7.3179 North  Level Estimated
Sat 12:25:00 AM 45.0042 7.3236 North  Level Estimated
Sat 12:26:00 AM 45.0749 7.3293 North  Level Estimated
Sat 12:27:00 AM 45.1456 7.3351 North  Level Estimated
Sat 12:28:00 AM 45.2163 7.3408 North  Level Estimated
Sat 12:29:00 AM 45.2870 7.3466 North  Level Estimated
Sat 12:30:00 AM 45.3577 7.3523 North  Level Estimated
Sat 12:31:00 AM 45.4284 7.3581 North  Level Estimated
Sat 12:32:00 AM 45.4991 7.3639 North  Level Estimated
Sat 12:33:00 AM 45.5698 7.3698 North  Level Estimated
Sat 12:34:00 AM 45.6405 7.3756 North  Level Estimated
Sat 12:35:00 AM 45.7112 7.3814 North  Level Estimated
Sat 12:36:00 AM 45.7819 7.3873 North  Level Estimated
Sat 12:37:00 AM 45.8526 7.3932 North  Level Estimated
Sat 12:38:00 AM 45.9233 7.3991 North  Level Estimated
Sat 12:39:00 AM 45.9940 7.4050 North  Level Estimated
Sat 12:40:00 AM 46.0647 7.4109 North  Level Estimated
Sat 12:41:00 AM 46.1354 7.4168 North  Level Estimated
Sat 12:42:00 AM 46.2128 7.4233 North  Level Estimated
Sat 12:43:00 AM 46.2903 7.4299 North  Level Estimated
Sat 12:44:00 AM 46.3677 7.4365 North  Level Estimated
Sat 12:45:00 AM 46.4451 7.4430 North  Level Estimated
Sat 12:46:00 AM 46.5226 7.4496 North  Level Estimated
Sat 12:47:00 AM 46.6000 7.4562 North  Level Estimated
Sat 12:48:00 AM 46.6774 7.4629 North  Level Estimated
Sat 12:49:00 AM 46.7549 7.4695 North  Level Estimated
Sat 12:50:00 AM 46.8323 7.4762 North  Level Estimated
Sat 12:51:00 AM 46.9097 7.4829 North  Level Estimated
Sat 12:52:00 AM 46.9871 7.4896 North  Level Estimated
Sat 12:53:00 AM 47.0646 7.4963 North  Level Estimated
Sat 12:54:00 AM 47.1420 7.5031 North  Level Estimated
Sat 12:55:00 AM 47.2194 7.5098 North  Level Estimated
Sat 12:56:00 AM 47.2969 7.5166 North  Level Estimated
Sat 12:57:00 AM 47.3743 7.5234 North  Level Estimated
Sat 12:58:00 AM 47.4517 7.5303 North  Level Estimated
Sat 12:59:00 AM 47.5292 7.5371 North  Level Estimated
Sat 01:00:00 AM 47.6066 7.5440 North  Level Estimated
Sat 01:01:00 AM 47.7061 7.5528 North  Level Estimated
Sat 01:02:00 AM 47.8057 7.5617 North  Level Estimated
Sat 01:03:00 AM 47.9052 7.5707 North  Level Estimated
Sat 01:04:00 AM 48.0048 7.5796 North  Level Estimated
Sat 01:05:00 AM 48.1043 7.5886 North  Level Estimated
Sat 01:06:00 AM 48.2039 7.5976 North  Level Estimated
Sat 01:07:00 AM 48.3034 7.6067 North  Level Estimated
Sat 01:08:00 AM 48.4030 7.6158 North  Level Estimated
Sat 01:09:00 AM 48.5025 7.6249 North  Level Estimated
Sat 01:10:00 AM 48.5383 7.6282 North  Level Estimated
Sat 01:11:00 AM 48.5383 7.6282 117° Southeast  Level Estimated
Sat 01:12:00 AM 48.5383 7.6282 117° Southeast  Level Estimated

Login

Don't have an account? Register now (free) for customized features, flight alerts, and more!